sensor_id;sensor_type;location;lat;lon;timestamp;temperature;humidity
52203;DHT22;38173;52.850;6.970;2023-05-16T00:00:25;9.30;99.90
52203;DHT22;38173;52.850;6.970;2023-05-16T00:02:52;9.30;99.90
52203;DHT22;38173;52.850;6.970;2023-05-16T00:05:21;9.20;99.90
52203;DHT22;38173;52.850;6.970;2023-05-16T00:07:47;9.10;99.90
52203;DHT22;38173;52.850;6.970;2023-05-16T00:10:13;9.10;99.90
52203;DHT22;38173;52.850;6.970;2023-05-16T00:12:40;9.00;99.90
52203;DHT22;38173;52.850;6.970;2023-05-16T00:15:06;9.00;99.90
52203;DHT22;38173;52.850;6.970;2023-05-16T00:17:33;8.90;99.90
52203;DHT22;38173;52.850;6.970;2023-05-16T00:20:01;8.80;99.90
52203;DHT22;38173;52.850;6.970;2023-05-16T00:22:30;8.80;99.90
52203;DHT22;38173;52.850;6.970;2023-05-16T00:24:56;8.70;99.90
52203;DHT22;38173;52.850;6.970;2023-05-16T00:27:21;8.70;99.90
52203;DHT22;38173;52.850;6.970;2023-05-16T00:29:47;8.60;99.90
52203;DHT22;38173;52.850;6.970;2023-05-16T00:32:13;8.50;99.90
52203;DHT22;38173;52.850;6.970;2023-05-16T00:34:38;8.50;99.90
52203;DHT22;38173;52.850;6.970;2023-05-16T00:37:04;8.50;99.90
52203;DHT22;38173;52.850;6.970;2023-05-16T00:39:29;8.40;99.90
52203;DHT22;38173;52.850;6.970;2023-05-16T00:41:55;8.40;99.90
52203;DHT22;38173;52.850;6.970;2023-05-16T00:44:21;8.30;99.90
52203;DHT22;38173;52.850;6.970;2023-05-16T00:46:47;8.30;99.90
52203;DHT22;38173;52.850;6.970;2023-05-16T00:49:13;8.20;99.90
52203;DHT22;38173;52.850;6.970;2023-05-16T00:51:38;8.20;99.90
52203;DHT22;38173;52.850;6.970;2023-05-16T00:54:04;8.10;99.90
52203;DHT22;38173;52.850;6.970;2023-05-16T00:56:30;8.10;99.90
52203;DHT22;38173;52.850;6.970;2023-05-16T00:58:56;8.10;99.90
52203;DHT22;38173;52.850;6.970;2023-05-16T01:01:22;8.00;99.90
52203;DHT22;38173;52.850;6.970;2023-05-16T01:03:49;8.00;99.90
52203;DHT22;38173;52.850;6.970;2023-05-16T01:06:15;7.90;99.90
52203;DHT22;38173;52.850;6.970;2023-05-16T01:08:40;7.90;99.90
52203;DHT22;38173;52.850;6.970;2023-05-16T01:16:19;7.80;99.90
52203;DHT22;38173;52.850;6.970;2023-05-16T01:21:38;7.70;99.90
52203;DHT22;38173;52.850;6.970;2023-05-16T01:24:54;7.60;99.90
52203;DHT22;38173;52.850;6.970;2023-05-16T01:26:54;7.60;99.90
52203;DHT22;38173;52.850;6.970;2023-05-16T01:29:20;7.50;99.90
52203;DHT22;38173;52.850;6.970;2023-05-16T01:31:48;7.50;99.90
52203;DHT22;38173;52.850;6.970;2023-05-16T01:34:14;7.40;99.90
52203;DHT22;38173;52.850;6.970;2023-05-16T01:39:26;7.30;99.90
52203;DHT22;38173;52.850;6.970;2023-05-16T01:42:09;7.20;99.90
52203;DHT22;38173;52.850;6.970;2023-05-16T01:47:12;7.10;99.90
52203;DHT22;38173;52.850;6.970;2023-05-16T01:49:40;7.10;99.90
52203;DHT22;38173;52.850;6.970;2023-05-16T01:52:10;7.10;99.90
52203;DHT22;38173;52.850;6.970;2023-05-16T01:54:38;7.00;99.90
52203;DHT22;38173;52.850;6.970;2023-05-16T01:57:07;7.00;99.90
52203;DHT22;38173;52.850;6.970;2023-05-16T01:59:33;7.00;99.90
52203;DHT22;38173;52.850;6.970;2023-05-16T02:01:59;7.00;99.90
52203;DHT22;38173;52.850;6.970;2023-05-16T02:04:25;7.00;99.90
52203;DHT22;38173;52.850;6.970;2023-05-16T02:06:51;6.90;99.90
52203;DHT22;38173;52.850;6.970;2023-05-16T02:09:17;6.90;99.90
52203;DHT22;38173;52.850;6.970;2023-05-16T02:11:43;6.90;99.90
52203;DHT22;38173;52.850;6.970;2023-05-16T02:14:08;6.80;99.90
52203;DHT22;38173;52.850;6.970;2023-05-16T02:16:35;6.90;99.90
52203;DHT22;38173;52.850;6.970;2023-05-16T02:19:00;6.80;99.90
52203;DHT22;38173;52.850;6.970;2023-05-16T02:21:26;6.80;99.90
52203;DHT22;38173;52.850;6.970;2023-05-16T02:23:52;6.70;99.90
52203;DHT22;38173;52.850;6.970;2023-05-16T02:26:17;6.70;99.90
52203;DHT22;38173;52.850;6.970;2023-05-16T02:28:43;6.70;99.90
52203;DHT22;38173;52.850;6.970;2023-05-16T02:31:09;6.70;99.90
52203;DHT22;38173;52.850;6.970;2023-05-16T02:33:34;6.70;99.90
52203;DHT22;38173;52.850;6.970;2023-05-16T02:36:00;6.70;99.90
52203;DHT22;38173;52.850;6.970;2023-05-16T02:38:26;6.70;99.90
52203;DHT22;38173;52.850;6.970;2023-05-16T02:40:51;6.60;99.90
52203;DHT22;38173;52.850;6.970;2023-05-16T02:43:17;6.60;99.90
52203;DHT22;38173;52.850;6.970;2023-05-16T02:45:43;6.60;99.90
52203;DHT22;38173;52.850;6.970;2023-05-16T02:48:08;6.50;99.90
52203;DHT22;38173;52.850;6.970;2023-05-16T02:50:34;6.50;99.90
52203;DHT22;38173;52.850;6.970;2023-05-16T02:53:00;6.50;99.90
52203;DHT22;38173;52.850;6.970;2023-05-16T02:55:29;6.50;99.90
52203;DHT22;38173;52.850;6.970;2023-05-16T02:57:56;6.40;99.90
52203;DHT22;38173;52.850;6.970;2023-05-16T03:00:22;6.40;99.90
52203;DHT22;38173;52.850;6.970;2023-05-16T03:02:48;6.40;99.90
52203;DHT22;38173;52.850;6.970;2023-05-16T03:05:14;6.30;99.90
52203;DHT22;38173;52.850;6.970;2023-05-16T03:07:40;6.30;99.90
52203;DHT22;38173;52.850;6.970;2023-05-16T03:10:08;6.30;99.90
52203;DHT22;38173;52.850;6.970;2023-05-16T03:12:36;6.20;99.90
52203;DHT22;38173;52.850;6.970;2023-05-16T03:15:03;6.20;99.90
52203;DHT22;38173;52.850;6.970;2023-05-16T03:17:29;6.20;99.90
52203;DHT22;38173;52.850;6.970;2023-05-16T03:19:55;6.20;99.90
52203;DHT22;38173;52.850;6.970;2023-05-16T03:22:20;6.10;99.90
52203;DHT22;38173;52.850;6.970;2023-05-16T03:24:46;6.10;99.90
52203;DHT22;38173;52.850;6.970;2023-05-16T03:27:12;6.10;99.90
52203;DHT22;38173;52.850;6.970;2023-05-16T03:29:37;6.10;99.90
52203;DHT22;38173;52.850;6.970;2023-05-16T03:32:05;6.20;99.90
52203;DHT22;38173;52.850;6.970;2023-05-16T03:34:31;6.20;99.90
52203;DHT22;38173;52.850;6.970;2023-05-16T03:36:57;6.20;99.90
52203;DHT22;38173;52.850;6.970;2023-05-16T03:39:22;6.20;99.90
52203;DHT22;38173;52.850;6.970;2023-05-16T03:41:48;6.30;99.90
52203;DHT22;38173;52.850;6.970;2023-05-16T03:44:14;6.30;99.90
52203;DHT22;38173;52.850;6.970;2023-05-16T03:46:39;6.30;99.90
52203;DHT22;38173;52.850;6.970;2023-05-16T03:49:05;6.30;99.90
52203;DHT22;38173;52.850;6.970;2023-05-16T03:51:31;6.30;99.90
52203;DHT22;38173;52.850;6.970;2023-05-16T03:53:57;6.30;99.90
52203;DHT22;38173;52.850;6.970;2023-05-16T03:56:23;6.30;99.90
52203;DHT22;38173;52.850;6.970;2023-05-16T03:58:48;6.30;99.90
52203;DHT22;38173;52.850;6.970;2023-05-16T04:01:15;6.30;99.90
52203;DHT22;38173;52.850;6.970;2023-05-16T04:03:41;6.30;99.90
52203;DHT22;38173;52.850;6.970;2023-05-16T04:06:07;6.40;99.90
52203;DHT22;38173;52.850;6.970;2023-05-16T04:08:33;6.50;99.90
52203;DHT22;38173;52.850;6.970;2023-05-16T04:10:59;6.50;99.90
52203;DHT22;38173;52.850;6.970;2023-05-16T04:13:24;6.60;99.90
52203;DHT22;38173;52.850;6.970;2023-05-16T04:15:50;6.60;99.90
52203;DHT22;38173;52.850;6.970;2023-05-16T04:18:16;6.70;99.90
52203;DHT22;38173;52.850;6.970;2023-05-16T04:20:42;6.70;99.90
52203;DHT22;38173;52.850;6.970;2023-05-16T04:23:08;6.70;99.90
52203;DHT22;38173;52.850;6.970;2023-05-16T04:25:36;6.70;99.90
52203;DHT22;38173;52.850;6.970;2023-05-16T04:28:02;6.70;99.90
52203;DHT22;38173;52.850;6.970;2023-05-16T04:30:27;6.60;99.90
52203;DHT22;38173;52.850;6.970;2023-05-16T04:32:56;6.60;99.90
52203;DHT22;38173;52.850;6.970;2023-05-16T04:35:25;6.60;99.90
52203;DHT22;38173;52.850;6.970;2023-05-16T04:37:50;6.60;99.90
52203;DHT22;38173;52.850;6.970;2023-05-16T04:40:18;6.60;99.90
52203;DHT22;38173;52.850;6.970;2023-05-16T04:42:44;6.60;99.90
52203;DHT22;38173;52.850;6.970;2023-05-16T04:45:10;6.60;99.90
52203;DHT22;38173;52.850;6.970;2023-05-16T04:47:37;6.70;99.90
52203;DHT22;38173;52.850;6.970;2023-05-16T04:50:03;6.70;99.90
52203;DHT22;38173;52.850;6.970;2023-05-16T04:52:31;6.70;99.90
52203;DHT22;38173;52.850;6.970;2023-05-16T04:55:06;6.80;99.90
52203;DHT22;38173;52.850;6.970;2023-05-16T04:57:32;6.80;99.90
52203;DHT22;38173;52.850;6.970;2023-05-16T05:00:01;6.80;99.90
52203;DHT22;38173;52.850;6.970;2023-05-16T05:02:27;6.90;99.90
52203;DHT22;38173;52.850;6.970;2023-05-16T05:04:52;6.90;99.90
52203;DHT22;38173;52.850;6.970;2023-05-16T05:07:19;6.90;99.90
52203;DHT22;38173;52.850;6.970;2023-05-16T05:09:45;7.00;99.90
52203;DHT22;38173;52.850;6.970;2023-05-16T05:12:13;7.10;99.90
52203;DHT22;38173;52.850;6.970;2023-05-16T05:14:38;7.20;99.90
52203;DHT22;38173;52.850;6.970;2023-05-16T05:17:04;7.30;99.90
52203;DHT22;38173;52.850;6.970;2023-05-16T05:19:32;7.30;99.90
52203;DHT22;38173;52.850;6.970;2023-05-16T05:21:58;7.40;99.90
52203;DHT22;38173;52.850;6.970;2023-05-16T05:24:24;7.50;99.90
52203;DHT22;38173;52.850;6.970;2023-05-16T05:26:51;7.50;99.90
52203;DHT22;38173;52.850;6.970;2023-05-16T05:29:17;7.60;99.90
52203;DHT22;38173;52.850;6.970;2023-05-16T05:31:45;7.70;99.90
52203;DHT22;38173;52.850;6.970;2023-05-16T05:34:14;7.80;99.90
52203;DHT22;38173;52.850;6.970;2023-05-16T05:36:39;7.90;99.90
52203;DHT22;38173;52.850;6.970;2023-05-16T05:39:05;8.00;99.90
52203;DHT22;38173;52.850;6.970;2023-05-16T05:41:31;8.10;99.90
52203;DHT22;38173;52.850;6.970;2023-05-16T05:43:57;8.20;99.90
52203;DHT22;38173;52.850;6.970;2023-05-16T05:46:23;8.40;99.90
52203;DHT22;38173;52.850;6.970;2023-05-16T05:48:49;8.50;99.90
52203;DHT22;38173;52.850;6.970;2023-05-16T05:51:15;8.60;99.90
52203;DHT22;38173;52.850;6.970;2023-05-16T05:53:42;8.70;99.90
52203;DHT22;38173;52.850;6.970;2023-05-16T05:56:10;8.90;99.90
52203;DHT22;38173;52.850;6.970;2023-05-16T05:58:36;9.00;99.90
52203;DHT22;38173;52.850;6.970;2023-05-16T06:01:01;9.10;99.90
52203;DHT22;38173;52.850;6.970;2023-05-16T06:03:27;9.20;99.90
52203;DHT22;38173;52.850;6.970;2023-05-16T06:05:53;9.30;99.90
52203;DHT22;38173;52.850;6.970;2023-05-16T06:08:18;9.50;99.90
52203;DHT22;38173;52.850;6.970;2023-05-16T06:10:44;9.60;99.90
52203;DHT22;38173;52.850;6.970;2023-05-16T06:13:11;9.70;99.90
52203;DHT22;38173;52.850;6.970;2023-05-16T06:15:36;9.80;99.90
52203;DHT22;38173;52.850;6.970;2023-05-16T06:18:02;9.90;99.90
52203;DHT22;38173;52.850;6.970;2023-05-16T06:20:34;10.00;99.90
52203;DHT22;38173;52.850;6.970;2023-05-16T06:23:04;10.10;99.90
52203;DHT22;38173;52.850;6.970;2023-05-16T06:25:30;10.20;99.90
52203;DHT22;38173;52.850;6.970;2023-05-16T06:27:56;10.30;99.90
52203;DHT22;38173;52.850;6.970;2023-05-16T06:30:24;10.40;99.90
52203;DHT22;38173;52.850;6.970;2023-05-16T06:32:50;10.40;99.90
52203;DHT22;38173;52.850;6.970;2023-05-16T06:35:16;10.60;99.90
52203;DHT22;38173;52.850;6.970;2023-05-16T06:37:42;10.60;99.90
52203;DHT22;38173;52.850;6.970;2023-05-16T06:40:08;10.70;99.90
52203;DHT22;38173;52.850;6.970;2023-05-16T06:42:34;10.70;99.90
52203;DHT22;38173;52.850;6.970;2023-05-16T06:44:59;10.60;99.90
52203;DHT22;38173;52.850;6.970;2023-05-16T06:47:25;10.70;99.90
52203;DHT22;38173;52.850;6.970;2023-05-16T06:49:51;10.80;99.90
52203;DHT22;38173;52.850;6.970;2023-05-16T06:52:17;10.90;99.90
52203;DHT22;38173;52.850;6.970;2023-05-16T06:54:42;11.10;99.90
52203;DHT22;38173;52.850;6.970;2023-05-16T06:57:08;11.30;99.90
52203;DHT22;38173;52.850;6.970;2023-05-16T06:59:34;11.30;99.90
52203;DHT22;38173;52.850;6.970;2023-05-16T07:02:09;11.40;99.90
52203;DHT22;38173;52.850;6.970;2023-05-16T07:04:34;11.40;99.90
52203;DHT22;38173;52.850;6.970;2023-05-16T07:07:02;11.40;99.90
52203;DHT22;38173;52.850;6.970;2023-05-16T07:09:28;11.40;99.90
52203;DHT22;38173;52.850;6.970;2023-05-16T07:11:54;11.40;99.90
52203;DHT22;38173;52.850;6.970;2023-05-16T07:14:20;11.50;99.90
52203;DHT22;38173;52.850;6.970;2023-05-16T07:16:45;11.50;99.90
52203;DHT22;38173;52.850;6.970;2023-05-16T07:19:11;11.40;99.90
52203;DHT22;38173;52.850;6.970;2023-05-16T07:21:37;11.20;99.90
52203;DHT22;38173;52.850;6.970;2023-05-16T07:24:06;11.20;99.90
52203;DHT22;38173;52.850;6.970;2023-05-16T07:26:31;11.20;99.90
52203;DHT22;38173;52.850;6.970;2023-05-16T07:28:57;11.40;99.90
52203;DHT22;38173;52.850;6.970;2023-05-16T07:31:25;11.60;99.90
52203;DHT22;38173;52.850;6.970;2023-05-16T07:33:51;12.00;99.90
52203;DHT22;38173;52.850;6.970;2023-05-16T07:36:17;12.40;99.90
52203;DHT22;38173;52.850;6.970;2023-05-16T07:38:43;12.60;99.90
52203;DHT22;38173;52.850;6.970;2023-05-16T07:41:09;12.90;99.90
52203;DHT22;38173;52.850;6.970;2023-05-16T07:43:35;13.10;99.90
52203;DHT22;38173;52.850;6.970;2023-05-16T07:46:01;13.10;99.90
52203;DHT22;38173;52.850;6.970;2023-05-16T07:48:27;12.80;99.90
52203;DHT22;38173;52.850;6.970;2023-05-16T07:50:53;12.70;99.90
52203;DHT22;38173;52.850;6.970;2023-05-16T07:53:20;12.70;99.90
52203;DHT22;38173;52.850;6.970;2023-05-16T07:55:46;12.70;99.90
52203;DHT22;38173;52.850;6.970;2023-05-16T07:58:12;12.70;99.90
52203;DHT22;38173;52.850;6.970;2023-05-16T08:00:37;12.80;99.90
52203;DHT22;38173;52.850;6.970;2023-05-16T08:03:03;12.90;99.90
52203;DHT22;38173;52.850;6.970;2023-05-16T08:05:29;13.10;99.90
52203;DHT22;38173;52.850;6.970;2023-05-16T08:07:55;13.30;99.90
52203;DHT22;38173;52.850;6.970;2023-05-16T08:10:21;13.50;99.90
52203;DHT22;38173;52.850;6.970;2023-05-16T08:12:47;13.60;99.90
52203;DHT22;38173;52.850;6.970;2023-05-16T08:15:13;13.50;99.90
52203;DHT22;38173;52.850;6.970;2023-05-16T08:17:39;13.30;99.90
52203;DHT22;38173;52.850;6.970;2023-05-16T08:20:07;13.10;99.90
52203;DHT22;38173;52.850;6.970;2023-05-16T08:22:33;13.00;99.90
52203;DHT22;38173;52.850;6.970;2023-05-16T08:24:59;13.20;99.90
52203;DHT22;38173;52.850;6.970;2023-05-16T08:27:28;13.40;99.90
52203;DHT22;38173;52.850;6.970;2023-05-16T08:29:53;13.60;97.40
52203;DHT22;38173;52.850;6.970;2023-05-16T08:32:20;13.70;98.50
52203;DHT22;38173;52.850;6.970;2023-05-16T08:34:46;13.60;97.60
52203;DHT22;38173;52.850;6.970;2023-05-16T08:37:12;13.60;99.90
52203;DHT22;38173;52.850;6.970;2023-05-16T08:39:38;13.70;99.90
52203;DHT22;38173;52.850;6.970;2023-05-16T08:42:04;13.80;99.90
52203;DHT22;38173;52.850;6.970;2023-05-16T08:44:30;13.90;99.90
52203;DHT22;38173;52.850;6.970;2023-05-16T08:46:56;14.10;99.90
52203;DHT22;38173;52.850;6.970;2023-05-16T08:49:21;14.20;99.60
52203;DHT22;38173;52.850;6.970;2023-05-16T08:51:48;14.30;98.90
52203;DHT22;38173;52.850;6.970;2023-05-16T08:54:18;14.40;97.60
52203;DHT22;38173;52.850;6.970;2023-05-16T08:56:44;14.50;98.00
52203;DHT22;38173;52.850;6.970;2023-05-16T08:59:10;14.60;96.50
52203;DHT22;38173;52.850;6.970;2023-05-16T09:01:39;14.60;94.30
52203;DHT22;38173;52.850;6.970;2023-05-16T09:04:06;14.50;93.60
52203;DHT22;38173;52.850;6.970;2023-05-16T09:06:32;14.40;92.50
52203;DHT22;38173;52.850;6.970;2023-05-16T09:09:00;14.40;92.70
52203;DHT22;38173;52.850;6.970;2023-05-16T09:11:27;14.40;93.90
52203;DHT22;38173;52.850;6.970;2023-05-16T09:13:53;14.30;91.20
52203;DHT22;38173;52.850;6.970;2023-05-16T09:16:19;14.30;92.60
52203;DHT22;38173;52.850;6.970;2023-05-16T09:18:46;14.50;90.60
52203;DHT22;38173;52.850;6.970;2023-05-16T09:21:17;14.80;89.70
52203;DHT22;38173;52.850;6.970;2023-05-16T09:23:43;15.00;90.10
52203;DHT22;38173;52.850;6.970;2023-05-16T09:26:09;14.80;89.80
52203;DHT22;38173;52.850;6.970;2023-05-16T09:28:40;14.40;93.50
52203;DHT22;38173;52.850;6.970;2023-05-16T09:33:45;13.80;91.60
52203;DHT22;38173;52.850;6.970;2023-05-16T09:36:11;13.60;91.90
52203;DHT22;38173;52.850;6.970;2023-05-16T09:38:36;13.30;93.20
52203;DHT22;38173;52.850;6.970;2023-05-16T09:41:02;13.10;95.10
52203;DHT22;38173;52.850;6.970;2023-05-16T09:43:28;12.90;95.10
52203;DHT22;38173;52.850;6.970;2023-05-16T09:45:57;13.00;97.50
52203;DHT22;38173;52.850;6.970;2023-05-16T09:48:23;13.10;99.50
52203;DHT22;38173;52.850;6.970;2023-05-16T09:50:53;13.40;99.60
52203;DHT22;38173;52.850;6.970;2023-05-16T09:53:25;13.70;98.90
52203;DHT22;38173;52.850;6.970;2023-05-16T09:56:04;14.10;98.50
52203;DHT22;38173;52.850;6.970;2023-05-16T09:58:36;14.40;96.50
52203;DHT22;38173;52.850;6.970;2023-05-16T10:01:05;14.80;95.20
52203;DHT22;38173;52.850;6.970;2023-05-16T10:03:35;15.00;94.10
52203;DHT22;38173;52.850;6.970;2023-05-16T10:06:01;15.10;90.80
52203;DHT22;38173;52.850;6.970;2023-05-16T10:08:27;15.20;83.70
52203;DHT22;38173;52.850;6.970;2023-05-16T10:10:55;15.40;78.60
52203;DHT22;38173;52.850;6.970;2023-05-16T10:13:22;15.60;75.70
52203;DHT22;38173;52.850;6.970;2023-05-16T10:15:49;15.70;74.80
52203;DHT22;38173;52.850;6.970;2023-05-16T10:18:19;15.50;74.70
52203;DHT22;38173;52.850;6.970;2023-05-16T10:20:46;15.40;78.80
52203;DHT22;38173;52.850;6.970;2023-05-16T10:23:15;15.40;82.20
52203;DHT22;38173;52.850;6.970;2023-05-16T10:25:41;15.80;78.10
52203;DHT22;38173;52.850;6.970;2023-05-16T10:28:09;16.10;77.80
52203;DHT22;38173;52.850;6.970;2023-05-16T10:30:34;16.40;76.40
52203;DHT22;38173;52.850;6.970;2023-05-16T10:33:01;16.50;72.60
52203;DHT22;38173;52.850;6.970;2023-05-16T10:35:29;16.50;73.40
52203;DHT22;38173;52.850;6.970;2023-05-16T10:37:55;16.80;73.80
52203;DHT22;38173;52.850;6.970;2023-05-16T10:40:22;16.80;70.00
52203;DHT22;38173;52.850;6.970;2023-05-16T10:42:59;16.50;69.20
52203;DHT22;38173;52.850;6.970;2023-05-16T10:45:25;16.30;73.00
52203;DHT22;38173;52.850;6.970;2023-05-16T10:47:54;16.20;74.60
52203;DHT22;38173;52.850;6.970;2023-05-16T10:50:39;16.50;72.40
52203;DHT22;38173;52.850;6.970;2023-05-16T11:01:45;15.90;73.00
52203;DHT22;38173;52.850;6.970;2023-05-16T11:06:30;15.30;78.30
52203;DHT22;38173;52.850;6.970;2023-05-16T11:14:07;15.80;73.20
52203;DHT22;38173;52.850;6.970;2023-05-16T11:16:33;16.20;72.70
52203;DHT22;38173;52.850;6.970;2023-05-16T11:19:03;16.50;71.30
52203;DHT22;38173;52.850;6.970;2023-05-16T11:24:32;16.60;68.40
52203;DHT22;38173;52.850;6.970;2023-05-16T11:26:59;16.40;66.00
52203;DHT22;38173;52.850;6.970;2023-05-16T11:29:27;16.00;71.00
52203;DHT22;38173;52.850;6.970;2023-05-16T11:31:53;15.60;73.90
52203;DHT22;38173;52.850;6.970;2023-05-16T11:34:19;15.20;74.50
52203;DHT22;38173;52.850;6.970;2023-05-16T11:36:45;15.10;77.40
52203;DHT22;38173;52.850;6.970;2023-05-16T11:39:11;15.30;75.50
52203;DHT22;38173;52.850;6.970;2023-05-16T11:41:37;15.60;74.00
52203;DHT22;38173;52.850;6.970;2023-05-16T11:44:03;16.00;74.50
52203;DHT22;38173;52.850;6.970;2023-05-16T11:46:30;16.40;71.30
52203;DHT22;38173;52.850;6.970;2023-05-16T11:48:58;16.50;71.10
52203;DHT22;38173;52.850;6.970;2023-05-16T11:51:23;16.40;68.40
52203;DHT22;38173;52.850;6.970;2023-05-16T11:53:52;16.30;70.50
52203;DHT22;38173;52.850;6.970;2023-05-16T11:56:19;16.50;72.60
52203;DHT22;38173;52.850;6.970;2023-05-16T11:58:46;16.70;67.10
52203;DHT22;38173;52.850;6.970;2023-05-16T12:01:12;17.00;68.40
52203;DHT22;38173;52.850;6.970;2023-05-16T12:03:38;17.30;65.30
52203;DHT22;38173;52.850;6.970;2023-05-16T12:06:03;17.40;64.60
52203;DHT22;38173;52.850;6.970;2023-05-16T12:08:29;17.10;64.60
52203;DHT22;38173;52.850;6.970;2023-05-16T12:10:55;16.70;65.80
52203;DHT22;38173;52.850;6.970;2023-05-16T12:13:22;16.40;65.30
52203;DHT22;38173;52.850;6.970;2023-05-16T12:15:48;16.50;66.30
52203;DHT22;38173;52.850;6.970;2023-05-16T12:18:17;16.60;69.50
52203;DHT22;38173;52.850;6.970;2023-05-16T12:20:43;16.70;67.20
52203;DHT22;38173;52.850;6.970;2023-05-16T12:23:09;16.80;67.10
52203;DHT22;38173;52.850;6.970;2023-05-16T12:25:35;16.70;64.90
52203;DHT22;38173;52.850;6.970;2023-05-16T12:28:03;16.50;65.20
52203;DHT22;38173;52.850;6.970;2023-05-16T12:30:30;16.40;65.80
52203;DHT22;38173;52.850;6.970;2023-05-16T12:33:00;16.60;68.60
52203;DHT22;38173;52.850;6.970;2023-05-16T12:35:30;16.90;68.10
52203;DHT22;38173;52.850;6.970;2023-05-16T12:37:58;17.00;66.60
52203;DHT22;38173;52.850;6.970;2023-05-16T12:40:28;17.30;66.60
52203;DHT22;38173;52.850;6.970;2023-05-16T12:42:54;17.70;66.00
52203;DHT22;38173;52.850;6.970;2023-05-16T12:45:20;17.90;66.40
52203;DHT22;38173;52.850;6.970;2023-05-16T12:47:46;17.70;63.90
52203;DHT22;38173;52.850;6.970;2023-05-16T12:50:12;17.40;64.90
52203;DHT22;38173;52.850;6.970;2023-05-16T12:52:57;17.00;64.80
52203;DHT22;38173;52.850;6.970;2023-05-16T12:55:23;16.50;65.60
52203;DHT22;38173;52.850;6.970;2023-05-16T12:57:49;16.60;68.60
52203;DHT22;38173;52.850;6.970;2023-05-16T13:00:16;17.20;69.60
52203;DHT22;38173;52.850;6.970;2023-05-16T13:02:43;17.60;65.50
52203;DHT22;38173;52.850;6.970;2023-05-16T13:05:09;17.80;63.80
52203;DHT22;38173;52.850;6.970;2023-05-16T13:07:35;17.70;65.30
52203;DHT22;38173;52.850;6.970;2023-05-16T13:10:01;17.50;64.40
52203;DHT22;38173;52.850;6.970;2023-05-16T13:12:28;17.80;67.40
52203;DHT22;38173;52.850;6.970;2023-05-16T13:14:54;17.80;65.10
52203;DHT22;38173;52.850;6.970;2023-05-16T13:17:20;18.10;66.20
52203;DHT22;38173;52.850;6.970;2023-05-16T13:19:45;18.10;65.50
52203;DHT22;38173;52.850;6.970;2023-05-16T13:22:11;18.40;66.60
52203;DHT22;38173;52.850;6.970;2023-05-16T13:24:37;18.80;63.20
52203;DHT22;38173;52.850;6.970;2023-05-16T13:27:03;19.20;62.30
52203;DHT22;38173;52.850;6.970;2023-05-16T13:29:28;19.10;62.10
52203;DHT22;38173;52.850;6.970;2023-05-16T13:31:55;19.10;63.50
52203;DHT22;38173;52.850;6.970;2023-05-16T13:34:20;19.20;63.30
52203;DHT22;38173;52.850;6.970;2023-05-16T13:36:46;19.00;62.10
52203;DHT22;38173;52.850;6.970;2023-05-16T13:39:13;18.50;62.10
52203;DHT22;38173;52.850;6.970;2023-05-16T13:41:40;18.00;63.50
52203;DHT22;38173;52.850;6.970;2023-05-16T13:44:09;17.40;63.60
52203;DHT22;38173;52.850;6.970;2023-05-16T13:46:35;16.70;66.40
52203;DHT22;38173;52.850;6.970;2023-05-16T13:49:01;16.30;69.00
52203;DHT22;38173;52.850;6.970;2023-05-16T13:51:27;16.10;71.70
52203;DHT22;38173;52.850;6.970;2023-05-16T13:53:53;16.00;73.10
52203;DHT22;38173;52.850;6.970;2023-05-16T13:56:18;16.00;73.90
52203;DHT22;38173;52.850;6.970;2023-05-16T13:58:44;15.90;73.10
52203;DHT22;38173;52.850;6.970;2023-05-16T14:01:10;15.80;72.60
52203;DHT22;38173;52.850;6.970;2023-05-16T14:03:37;15.70;72.10
52203;DHT22;38173;52.850;6.970;2023-05-16T14:06:03;15.80;73.70
52203;DHT22;38173;52.850;6.970;2023-05-16T14:08:29;15.80;73.70
52203;DHT22;38173;52.850;6.970;2023-05-16T14:10:54;15.90;71.80
52203;DHT22;38173;52.850;6.970;2023-05-16T14:13:20;15.90;71.50
52203;DHT22;38173;52.850;6.970;2023-05-16T14:15:46;16.00;71.80
52203;DHT22;38173;52.850;6.970;2023-05-16T14:18:11;16.20;71.30
52203;DHT22;38173;52.850;6.970;2023-05-16T14:20:38;16.30;71.40
52203;DHT22;38173;52.850;6.970;2023-05-16T14:23:03;16.30;71.90
52203;DHT22;38173;52.850;6.970;2023-05-16T14:25:29;16.30;71.50
52203;DHT22;38173;52.850;6.970;2023-05-16T14:27:55;16.10;72.90
52203;DHT22;38173;52.850;6.970;2023-05-16T14:30:20;15.90;73.90
52203;DHT22;38173;52.850;6.970;2023-05-16T14:32:46;15.60;72.80
52203;DHT22;38173;52.850;6.970;2023-05-16T14:35:12;15.40;75.40
52203;DHT22;38173;52.850;6.970;2023-05-16T14:37:37;15.20;76.60
52203;DHT22;38173;52.850;6.970;2023-05-16T14:40:03;15.00;77.20
52203;DHT22;38173;52.850;6.970;2023-05-16T14:42:30;14.90;78.20
52203;DHT22;38173;52.850;6.970;2023-05-16T14:44:56;14.90;78.20
52203;DHT22;38173;52.850;6.970;2023-05-16T14:47:22;14.90;79.50
52203;DHT22;38173;52.850;6.970;2023-05-16T14:49:48;14.70;79.00
52203;DHT22;38173;52.850;6.970;2023-05-16T14:52:13;14.70;79.40
52203;DHT22;38173;52.850;6.970;2023-05-16T14:54:39;14.60;79.00
52203;DHT22;38173;52.850;6.970;2023-05-16T14:57:05;14.40;77.90
52203;DHT22;38173;52.850;6.970;2023-05-16T14:59:31;14.10;79.10
52203;DHT22;38173;52.850;6.970;2023-05-16T15:01:56;13.80;81.70
52203;DHT22;38173;52.850;6.970;2023-05-16T15:04:22;13.70;87.50
52203;DHT22;38173;52.850;6.970;2023-05-16T15:06:48;13.70;94.00
52203;DHT22;38173;52.850;6.970;2023-05-16T15:09:14;13.70;99.00
52203;DHT22;38173;52.850;6.970;2023-05-16T15:11:40;13.60;99.90
52203;DHT22;38173;52.850;6.970;2023-05-16T15:14:05;13.90;99.90
52203;DHT22;38173;52.850;6.970;2023-05-16T15:16:31;14.10;99.90
52203;DHT22;38173;52.850;6.970;2023-05-16T15:18:58;14.40;99.90
52203;DHT22;38173;52.850;6.970;2023-05-16T15:21:23;14.70;99.90
52203;DHT22;38173;52.850;6.970;2023-05-16T15:23:49;14.80;99.10
52203;DHT22;38173;52.850;6.970;2023-05-16T15:26:16;14.60;97.50
52203;DHT22;38173;52.850;6.970;2023-05-16T15:28:41;14.50;97.60
52203;DHT22;38173;52.850;6.970;2023-05-16T15:31:07;14.20;96.60
52203;DHT22;38173;52.850;6.970;2023-05-16T15:33:33;14.00;97.90
52203;DHT22;38173;52.850;6.970;2023-05-16T15:35:58;13.90;98.80
52203;DHT22;38173;52.850;6.970;2023-05-16T15:38:24;13.90;97.80
52203;DHT22;38173;52.850;6.970;2023-05-16T15:40:50;13.90;98.40
52203;DHT22;38173;52.850;6.970;2023-05-16T15:43:16;14.10;98.50
52203;DHT22;38173;52.850;6.970;2023-05-16T15:45:42;14.30;96.50
52203;DHT22;38173;52.850;6.970;2023-05-16T15:48:08;14.30;96.10
52203;DHT22;38173;52.850;6.970;2023-05-16T15:50:34;14.30;96.50
52203;DHT22;38173;52.850;6.970;2023-05-16T15:53:00;14.30;94.40
52203;DHT22;38173;52.850;6.970;2023-05-16T15:55:25;14.30;94.90
52203;DHT22;38173;52.850;6.970;2023-05-16T15:57:51;14.20;94.60
52203;DHT22;38173;52.850;6.970;2023-05-16T16:00:22;14.10;93.70
52203;DHT22;38173;52.850;6.970;2023-05-16T16:02:47;14.00;94.80
52203;DHT22;38173;52.850;6.970;2023-05-16T16:05:13;14.00;95.30
52203;DHT22;38173;52.850;6.970;2023-05-16T16:07:39;13.80;95.80